sensor_id;sensor_type;location;lat;lon;timestamp;P1;durP1;ratioP1;P2;durP2;ratioP2
64500;SDS011;50874;24.150;-110.320;2023-05-07T00:01:11;12.23;;;2.30;;
64500;SDS011;50874;24.150;-110.320;2023-05-07T00:03:37;16.58;;;2.92;;
64500;SDS011;50874;24.150;-110.320;2023-05-07T00:06:04;20.23;;;3.33;;
64500;SDS011;50874;24.150;-110.320;2023-05-07T00:08:30;25.80;;;4.18;;
64500;SDS011;50874;24.150;-110.320;2023-05-07T00:10:57;30.83;;;6.03;;
64500;SDS011;50874;24.150;-110.320;2023-05-07T00:13:23;19.45;;;4.57;;
64500;SDS011;50874;24.150;-110.320;2023-05-07T00:15:50;17.40;;;3.28;;
64500;SDS011;50874;24.150;-110.320;2023-05-07T00:18:16;16.52;;;3.00;;
64500;SDS011;50874;24.150;-110.320;2023-05-07T00:20:46;23.65;;;2.28;;
64500;SDS011;50874;24.150;-110.320;2023-05-07T00:23:12;31.25;;;3.45;;
64500;SDS011;50874;24.150;-110.320;2023-05-07T00:25:39;13.48;;;2.30;;
64500;SDS011;50874;24.150;-110.320;2023-05-07T00:28:05;10.45;;;2.67;;
64500;SDS011;50874;24.150;-110.320;2023-05-07T00:30:31;9.75;;;2.03;;
64500;SDS011;50874;24.150;-110.320;2023-05-07T00:32:58;20.80;;;2.47;;
64500;SDS011;50874;24.150;-110.320;2023-05-07T00:35:24;23.27;;;3.17;;
64500;SDS011;50874;24.150;-110.320;2023-05-07T00:37:51;15.82;;;2.65;;
64500;SDS011;50874;24.150;-110.320;2023-05-07T00:40:17;25.65;;;4.20;;
64500;SDS011;50874;24.150;-110.320;2023-05-07T00:42:44;30.50;;;4.43;;
64500;SDS011;50874;24.150;-110.320;2023-05-07T00:45:15;23.33;;;2.83;;
64500;SDS011;50874;24.150;-110.320;2023-05-07T00:47:42;27.20;;;3.50;;
64500;SDS011;50874;24.150;-110.320;2023-05-07T00:50:09;25.60;;;3.70;;
64500;SDS011;50874;24.150;-110.320;2023-05-07T00:52:37;19.33;;;2.78;;
64500;SDS011;50874;24.150;-110.320;2023-05-07T00:55:05;18.70;;;2.22;;
64500;SDS011;50874;24.150;-110.320;2023-05-07T00:57:33;20.20;;;3.42;;
64500;SDS011;50874;24.150;-110.320;2023-05-07T01:00:03;15.88;;;3.45;;
64500;SDS011;50874;24.150;-110.320;2023-05-07T01:02:30;14.73;;;2.80;;
64500;SDS011;50874;24.150;-110.320;2023-05-07T01:04:57;18.17;;;3.17;;
64500;SDS011;50874;24.150;-110.320;2023-05-07T01:07:23;13.50;;;2.10;;
64500;SDS011;50874;24.150;-110.320;2023-05-07T01:09:50;13.73;;;2.80;;
64500;SDS011;50874;24.150;-110.320;2023-05-07T01:12:16;16.08;;;3.30;;
64500;SDS011;50874;24.150;-110.320;2023-05-07T01:14:43;20.48;;;2.80;;
64500;SDS011;50874;24.150;-110.320;2023-05-07T01:17:09;24.42;;;3.72;;
64500;SDS011;50874;24.150;-110.320;2023-05-07T01:19:36;20.17;;;3.63;;
64500;SDS011;50874;24.150;-110.320;2023-05-07T01:22:04;27.92;;;3.13;;
64500;SDS011;50874;24.150;-110.320;2023-05-07T01:24:37;28.20;;;3.42;;
64500;SDS011;50874;24.150;-110.320;2023-05-07T01:27:04;22.08;;;2.65;;
64500;SDS011;50874;24.150;-110.320;2023-05-07T01:29:30;17.30;;;3.03;;
64500;SDS011;50874;24.150;-110.320;2023-05-07T01:31:57;38.63;;;3.40;;
64500;SDS011;50874;24.150;-110.320;2023-05-07T01:34:27;14.77;;;2.30;;
64500;SDS011;50874;24.150;-110.320;2023-05-07T01:36:56;26.30;;;2.50;;
64500;SDS011;50874;24.150;-110.320;2023-05-07T01:39:25;13.30;;;2.38;;
64500;SDS011;50874;24.150;-110.320;2023-05-07T01:41:53;20.10;;;3.33;;
64500;SDS011;50874;24.150;-110.320;2023-05-07T01:44:22;26.88;;;3.25;;
64500;SDS011;50874;24.150;-110.320;2023-05-07T01:46:49;24.00;;;3.35;;
64500;SDS011;50874;24.150;-110.320;2023-05-07T01:49:16;29.25;;;4.55;;
64500;SDS011;50874;24.150;-110.320;2023-05-07T01:51:42;22.02;;;3.03;;
64500;SDS011;50874;24.150;-110.320;2023-05-07T01:54:09;26.05;;;3.15;;
64500;SDS011;50874;24.150;-110.320;2023-05-07T01:56:36;20.67;;;3.42;;
64500;SDS011;50874;24.150;-110.320;2023-05-07T01:59:02;8.25;;;2.35;;
64500;SDS011;50874;24.150;-110.320;2023-05-07T02:01:29;25.40;;;2.83;;
64500;SDS011;50874;24.150;-110.320;2023-05-07T02:03:55;26.45;;;2.55;;
64500;SDS011;50874;24.150;-110.320;2023-05-07T02:06:22;25.05;;;2.53;;
64500;SDS011;50874;24.150;-110.320;2023-05-07T02:08:48;37.35;;;3.38;;
64500;SDS011;50874;24.150;-110.320;2023-05-07T02:11:18;22.77;;;3.45;;
64500;SDS011;50874;24.150;-110.320;2023-05-07T02:13:45;29.92;;;3.40;;
64500;SDS011;50874;24.150;-110.320;2023-05-07T02:16:11;25.45;;;3.58;;
64500;SDS011;50874;24.150;-110.320;2023-05-07T02:18:39;13.75;;;2.20;;
64500;SDS011;50874;24.150;-110.320;2023-05-07T02:21:06;12.20;;;1.98;;
64500;SDS011;50874;24.150;-110.320;2023-05-07T02:23:32;9.90;;;2.30;;
64500;SDS011;50874;24.150;-110.320;2023-05-07T02:25:58;17.42;;;2.55;;
64500;SDS011;50874;24.150;-110.320;2023-05-07T02:28:25;21.27;;;3.90;;
64500;SDS011;50874;24.150;-110.320;2023-05-07T02:30:52;16.40;;;3.25;;
64500;SDS011;50874;24.150;-110.320;2023-05-07T02:33:18;22.92;;;3.60;;
64500;SDS011;50874;24.150;-110.320;2023-05-07T02:35:45;21.30;;;3.13;;
64500;SDS011;50874;24.150;-110.320;2023-05-07T02:38:11;26.10;;;3.45;;
64500;SDS011;50874;24.150;-110.320;2023-05-07T02:40:38;26.20;;;3.20;;
64500;SDS011;50874;24.150;-110.320;2023-05-07T02:43:05;10.48;;;2.75;;
64500;SDS011;50874;24.150;-110.320;2023-05-07T02:45:32;13.52;;;2.13;;
64500;SDS011;50874;24.150;-110.320;2023-05-07T02:47:58;21.50;;;3.25;;
64500;SDS011;50874;24.150;-110.320;2023-05-07T02:50:25;23.45;;;3.15;;
64500;SDS011;50874;24.150;-110.320;2023-05-07T02:52:52;19.13;;;2.83;;
64500;SDS011;50874;24.150;-110.320;2023-05-07T02:55:18;14.00;;;2.67;;
64500;SDS011;50874;24.150;-110.320;2023-05-07T02:57:45;15.48;;;2.83;;
64500;SDS011;50874;24.150;-110.320;2023-05-07T03:00:15;28.95;;;3.85;;
64500;SDS011;50874;24.150;-110.320;2023-05-07T03:02:43;44.58;;;6.68;;
64500;SDS011;50874;24.150;-110.320;2023-05-07T03:05:10;29.60;;;4.32;;
64500;SDS011;50874;24.150;-110.320;2023-05-07T03:07:37;17.20;;;2.45;;
64500;SDS011;50874;24.150;-110.320;2023-05-07T03:10:04;39.15;;;3.83;;
64500;SDS011;50874;24.150;-110.320;2023-05-07T03:12:31;17.45;;;2.80;;
64500;SDS011;50874;24.150;-110.320;2023-05-07T03:15:00;15.82;;;2.50;;
64500;SDS011;50874;24.150;-110.320;2023-05-07T03:17:29;16.70;;;2.80;;
64500;SDS011;50874;24.150;-110.320;2023-05-07T03:19:56;18.73;;;3.00;;
64500;SDS011;50874;24.150;-110.320;2023-05-07T03:22:22;26.92;;;3.60;;
64500;SDS011;50874;24.150;-110.320;2023-05-07T03:24:49;23.65;;;4.15;;
64500;SDS011;50874;24.150;-110.320;2023-05-07T03:27:15;32.88;;;4.18;;
64500;SDS011;50874;24.150;-110.320;2023-05-07T03:29:42;32.58;;;4.15;;
64500;SDS011;50874;24.150;-110.320;2023-05-07T03:32:08;17.15;;;3.63;;
64500;SDS011;50874;24.150;-110.320;2023-05-07T03:34:35;22.48;;;3.10;;
64500;SDS011;50874;24.150;-110.320;2023-05-07T03:37:01;24.02;;;3.05;;
64500;SDS011;50874;24.150;-110.320;2023-05-07T03:39:28;23.73;;;3.33;;
64500;SDS011;50874;24.150;-110.320;2023-05-07T03:41:54;28.90;;;3.63;;
64500;SDS011;50874;24.150;-110.320;2023-05-07T03:44:20;24.98;;;3.55;;
64500;SDS011;50874;24.150;-110.320;2023-05-07T03:46:47;16.20;;;2.28;;
64500;SDS011;50874;24.150;-110.320;2023-05-07T03:49:13;31.15;;;4.43;;
64500;SDS011;50874;24.150;-110.320;2023-05-07T03:51:40;28.88;;;4.15;;
64500;SDS011;50874;24.150;-110.320;2023-05-07T03:54:07;18.08;;;2.40;;
64500;SDS011;50874;24.150;-110.320;2023-05-07T03:56:33;29.52;;;2.97;;
64500;SDS011;50874;24.150;-110.320;2023-05-07T03:59:00;19.58;;;3.28;;
64500;SDS011;50874;24.150;-110.320;2023-05-07T04:01:27;32.80;;;3.95;;
64500;SDS011;50874;24.150;-110.320;2023-05-07T04:03:53;40.85;;;4.68;;
64500;SDS011;50874;24.150;-110.320;2023-05-07T04:06:20;33.13;;;4.50;;
64500;SDS011;50874;24.150;-110.320;2023-05-07T04:08:50;41.42;;;5.28;;
64500;SDS011;50874;24.150;-110.320;2023-05-07T04:11:16;33.03;;;3.67;;
64500;SDS011;50874;24.150;-110.320;2023-05-07T04:13:42;21.27;;;3.08;;
64500;SDS011;50874;24.150;-110.320;2023-05-07T04:16:09;24.35;;;3.35;;
64500;SDS011;50874;24.150;-110.320;2023-05-07T04:18:35;31.85;;;4.65;;
64500;SDS011;50874;24.150;-110.320;2023-05-07T04:21:02;21.55;;;3.72;;
64500;SDS011;50874;24.150;-110.320;2023-05-07T04:23:29;44.97;;;3.92;;
64500;SDS011;50874;24.150;-110.320;2023-05-07T04:25:55;50.30;;;8.65;;
64500;SDS011;50874;24.150;-110.320;2023-05-07T04:28:22;32.92;;;5.78;;
64500;SDS011;50874;24.150;-110.320;2023-05-07T04:30:49;27.50;;;4.55;;
64500;SDS011;50874;24.150;-110.320;2023-05-07T04:33:16;55.60;;;6.88;;
64500;SDS011;50874;24.150;-110.320;2023-05-07T04:35:43;49.25;;;8.05;;
64500;SDS011;50874;24.150;-110.320;2023-05-07T04:38:09;65.85;;;7.60;;
64500;SDS011;50874;24.150;-110.320;2023-05-07T04:40:36;51.47;;;6.85;;
64500;SDS011;50874;24.150;-110.320;2023-05-07T04:43:02;36.00;;;6.85;;
64500;SDS011;50874;24.150;-110.320;2023-05-07T04:45:29;53.63;;;8.27;;
64500;SDS011;50874;24.150;-110.320;2023-05-07T04:47:56;55.42;;;6.65;;
64500;SDS011;50874;24.150;-110.320;2023-05-07T04:50:22;53.35;;;7.05;;
64500;SDS011;50874;24.150;-110.320;2023-05-07T04:52:49;47.00;;;6.07;;
64500;SDS011;50874;24.150;-110.320;2023-05-07T04:55:16;33.22;;;5.90;;
64500;SDS011;50874;24.150;-110.320;2023-05-07T04:57:42;28.33;;;4.05;;
64500;SDS011;50874;24.150;-110.320;2023-05-07T05:00:09;34.70;;;5.93;;
64500;SDS011;50874;24.150;-110.320;2023-05-07T05:02:36;33.10;;;4.95;;
64500;SDS011;50874;24.150;-110.320;2023-05-07T05:05:02;13.40;;;3.42;;
64500;SDS011;50874;24.150;-110.320;2023-05-07T05:07:29;21.23;;;3.35;;
64500;SDS011;50874;24.150;-110.320;2023-05-07T05:09:55;26.02;;;3.90;;
64500;SDS011;50874;24.150;-110.320;2023-05-07T05:12:22;19.05;;;3.80;;
64500;SDS011;50874;24.150;-110.320;2023-05-07T05:14:49;15.20;;;3.13;;
64500;SDS011;50874;24.150;-110.320;2023-05-07T05:17:15;20.85;;;2.75;;
64500;SDS011;50874;24.150;-110.320;2023-05-07T05:19:42;22.17;;;3.53;;
64500;SDS011;50874;24.150;-110.320;2023-05-07T05:22:08;18.05;;;4.38;;
64500;SDS011;50874;24.150;-110.320;2023-05-07T05:24:35;20.70;;;5.30;;
64500;SDS011;50874;24.150;-110.320;2023-05-07T05:27:01;24.20;;;7.13;;
64500;SDS011;50874;24.150;-110.320;2023-05-07T05:29:28;28.88;;;9.20;;
64500;SDS011;50874;24.150;-110.320;2023-05-07T05:31:55;17.77;;;3.95;;
64500;SDS011;50874;24.150;-110.320;2023-05-07T05:34:21;30.52;;;6.07;;
64500;SDS011;50874;24.150;-110.320;2023-05-07T05:36:48;26.23;;;3.83;;
64500;SDS011;50874;24.150;-110.320;2023-05-07T05:39:15;23.92;;;4.00;;
64500;SDS011;50874;24.150;-110.320;2023-05-07T05:41:41;40.53;;;4.70;;
64500;SDS011;50874;24.150;-110.320;2023-05-07T05:44:07;20.85;;;4.22;;
64500;SDS011;50874;24.150;-110.320;2023-05-07T05:46:34;23.67;;;4.07;;
64500;SDS011;50874;24.150;-110.320;2023-05-07T05:49:01;26.48;;;3.47;;
64500;SDS011;50874;24.150;-110.320;2023-05-07T05:51:27;19.05;;;3.83;;
64500;SDS011;50874;24.150;-110.320;2023-05-07T05:53:54;14.20;;;2.70;;
64500;SDS011;50874;24.150;-110.320;2023-05-07T05:56:20;8.60;;;2.10;;
64500;SDS011;50874;24.150;-110.320;2023-05-07T05:58:47;16.95;;;3.05;;
64500;SDS011;50874;24.150;-110.320;2023-05-07T06:01:13;21.83;;;2.58;;
64500;SDS011;50874;24.150;-110.320;2023-05-07T06:03:39;20.33;;;3.28;;
64500;SDS011;50874;24.150;-110.320;2023-05-07T06:06:06;20.00;;;2.95;;
64500;SDS011;50874;24.150;-110.320;2023-05-07T06:08:32;22.45;;;3.03;;
64500;SDS011;50874;24.150;-110.320;2023-05-07T06:10:59;29.67;;;3.70;;
64500;SDS011;50874;24.150;-110.320;2023-05-07T06:13:26;12.65;;;2.45;;
64500;SDS011;50874;24.150;-110.320;2023-05-07T06:15:52;20.30;;;3.10;;
64500;SDS011;50874;24.150;-110.320;2023-05-07T06:18:19;18.92;;;2.55;;
64500;SDS011;50874;24.150;-110.320;2023-05-07T06:20:45;12.75;;;2.78;;
64500;SDS011;50874;24.150;-110.320;2023-05-07T06:23:12;15.00;;;3.13;;
64500;SDS011;50874;24.150;-110.320;2023-05-07T06:25:40;25.27;;;4.18;;
64500;SDS011;50874;24.150;-110.320;2023-05-07T06:28:06;48.47;;;7.63;;
64500;SDS011;50874;24.150;-110.320;2023-05-07T06:30:34;52.45;;;8.60;;
64500;SDS011;50874;24.150;-110.320;2023-05-07T06:33:01;40.75;;;6.60;;
64500;SDS011;50874;24.150;-110.320;2023-05-07T06:35:27;36.10;;;5.88;;
64500;SDS011;50874;24.150;-110.320;2023-05-07T06:37:54;42.58;;;6.38;;
64500;SDS011;50874;24.150;-110.320;2023-05-07T06:40:20;70.22;;;8.68;;
64500;SDS011;50874;24.150;-110.320;2023-05-07T06:42:46;57.10;;;8.23;;
64500;SDS011;50874;24.150;-110.320;2023-05-07T06:45:13;36.40;;;4.95;;
64500;SDS011;50874;24.150;-110.320;2023-05-07T06:47:39;42.47;;;5.60;;
64500;SDS011;50874;24.150;-110.320;2023-05-07T06:50:06;72.90;;;9.60;;
64500;SDS011;50874;24.150;-110.320;2023-05-07T06:52:33;69.90;;;10.02;;
64500;SDS011;50874;24.150;-110.320;2023-05-07T06:55:00;40.85;;;6.25;;
64500;SDS011;50874;24.150;-110.320;2023-05-07T06:57:27;44.15;;;6.00;;
64500;SDS011;50874;24.150;-110.320;2023-05-07T06:59:53;23.25;;;4.30;;
64500;SDS011;50874;24.150;-110.320;2023-05-07T07:02:20;42.28;;;5.78;;
64500;SDS011;50874;24.150;-110.320;2023-05-07T07:04:46;36.38;;;6.50;;
64500;SDS011;50874;24.150;-110.320;2023-05-07T07:07:12;32.85;;;5.43;;
64500;SDS011;50874;24.150;-110.320;2023-05-07T07:09:39;30.13;;;6.07;;
64500;SDS011;50874;24.150;-110.320;2023-05-07T07:12:05;34.53;;;5.53;;
64500;SDS011;50874;24.150;-110.320;2023-05-07T07:14:32;42.53;;;4.85;;
64500;SDS011;50874;24.150;-110.320;2023-05-07T07:16:58;26.70;;;3.83;;
64500;SDS011;50874;24.150;-110.320;2023-05-07T07:19:25;16.85;;;3.05;;
64500;SDS011;50874;24.150;-110.320;2023-05-07T07:21:52;15.85;;;2.65;;
64500;SDS011;50874;24.150;-110.320;2023-05-07T07:24:18;8.20;;;2.00;;
64500;SDS011;50874;24.150;-110.320;2023-05-07T07:26:46;12.63;;;3.42;;
64500;SDS011;50874;24.150;-110.320;2023-05-07T07:29:13;13.43;;;2.88;;
64500;SDS011;50874;24.150;-110.320;2023-05-07T07:31:39;21.48;;;2.70;;
64500;SDS011;50874;24.150;-110.320;2023-05-07T07:34:06;15.20;;;1.98;;
64500;SDS011;50874;24.150;-110.320;2023-05-07T07:36:35;8.30;;;2.83;;
64500;SDS011;50874;24.150;-110.320;2023-05-07T07:39:01;10.48;;;2.45;;
64500;SDS011;50874;24.150;-110.320;2023-05-07T07:41:28;13.55;;;2.65;;
64500;SDS011;50874;24.150;-110.320;2023-05-07T07:43:54;16.85;;;2.55;;
64500;SDS011;50874;24.150;-110.320;2023-05-07T07:46:21;10.63;;;2.13;;
64500;SDS011;50874;24.150;-110.320;2023-05-07T07:48:47;11.30;;;2.20;;
64500;SDS011;50874;24.150;-110.320;2023-05-07T07:51:13;10.70;;;2.50;;
64500;SDS011;50874;24.150;-110.320;2023-05-07T07:53:40;11.30;;;2.33;;
64500;SDS011;50874;24.150;-110.320;2023-05-07T07:56:07;16.70;;;2.25;;
64500;SDS011;50874;24.150;-110.320;2023-05-07T07:58:34;10.15;;;2.05;;
64500;SDS011;50874;24.150;-110.320;2023-05-07T08:01:02;6.13;;;1.65;;
64500;SDS011;50874;24.150;-110.320;2023-05-07T08:03:28;8.82;;;1.98;;
64500;SDS011;50874;24.150;-110.320;2023-05-07T08:05:57;8.07;;;1.80;;
64500;SDS011;50874;24.150;-110.320;2023-05-07T08:08:24;16.17;;;2.35;;
64500;SDS011;50874;24.150;-110.320;2023-05-07T08:10:50;14.80;;;1.77;;
64500;SDS011;50874;24.150;-110.320;2023-05-07T08:13:17;13.18;;;1.92;;
64500;SDS011;50874;24.150;-110.320;2023-05-07T08:15:44;9.13;;;1.73;;
64500;SDS011;50874;24.150;-110.320;2023-05-07T08:18:10;11.45;;;2.08;;
64500;SDS011;50874;24.150;-110.320;2023-05-07T08:20:37;6.65;;;1.25;;
64500;SDS011;50874;24.150;-110.320;2023-05-07T08:23:05;15.57;;;2.20;;
64500;SDS011;50874;24.150;-110.320;2023-05-07T08:25:34;13.77;;;2.65;;
64500;SDS011;50874;24.150;-110.320;2023-05-07T08:28:01;10.00;;;1.50;;
64500;SDS011;50874;24.150;-110.320;2023-05-07T08:30:28;15.98;;;2.65;;
64500;SDS011;50874;24.150;-110.320;2023-05-07T08:32:55;12.50;;;2.40;;
64500;SDS011;50874;24.150;-110.320;2023-05-07T08:35:21;10.15;;;2.53;;
64500;SDS011;50874;24.150;-110.320;2023-05-07T08:37:48;10.73;;;2.00;;
64500;SDS011;50874;24.150;-110.320;2023-05-07T08:40:14;16.92;;;2.63;;
64500;SDS011;50874;24.150;-110.320;2023-05-07T08:42:41;18.55;;;3.38;;
64500;SDS011;50874;24.150;-110.320;2023-05-07T08:45:10;12.27;;;2.20;;
64500;SDS011;50874;24.150;-110.320;2023-05-07T08:47:43;18.85;;;3.40;;
64500;SDS011;50874;24.150;-110.320;2023-05-07T08:50:12;16.27;;;3.22;;
64500;SDS011;50874;24.150;-110.320;2023-05-07T08:52:39;19.50;;;3.22;;
64500;SDS011;50874;24.150;-110.320;2023-05-07T08:55:06;16.60;;;3.08;;
64500;SDS011;50874;24.150;-110.320;2023-05-07T08:57:34;19.25;;;3.10;;
64500;SDS011;50874;24.150;-110.320;2023-05-07T09:00:01;22.92;;;3.17;;
64500;SDS011;50874;24.150;-110.320;2023-05-07T09:02:28;10.13;;;2.63;;
64500;SDS011;50874;24.150;-110.320;2023-05-07T09:04:55;14.60;;;2.53;;
64500;SDS011;50874;24.150;-110.320;2023-05-07T09:07:21;9.30;;;2.42;;
64500;SDS011;50874;24.150;-110.320;2023-05-07T09:09:49;13.65;;;2.60;;
64500;SDS011;50874;24.150;-110.320;2023-05-07T09:12:15;16.55;;;2.67;;
64500;SDS011;50874;24.150;-110.320;2023-05-07T09:14:43;14.18;;;2.33;;
64500;SDS011;50874;24.150;-110.320;2023-05-07T09:17:11;13.93;;;2.60;;
64500;SDS011;50874;24.150;-110.320;2023-05-07T09:19:37;11.40;;;2.28;;
64500;SDS011;50874;24.150;-110.320;2023-05-07T09:22:05;17.55;;;3.33;;
64500;SDS011;50874;24.150;-110.320;2023-05-07T09:24:34;10.52;;;2.28;;
64500;SDS011;50874;24.150;-110.320;2023-05-07T09:27:03;9.82;;;2.40;;
64500;SDS011;50874;24.150;-110.320;2023-05-07T09:29:30;13.38;;;2.95;;
64500;SDS011;50874;24.150;-110.320;2023-05-07T09:32:06;15.07;;;2.63;;
64500;SDS011;50874;24.150;-110.320;2023-05-07T09:34:33;19.02;;;2.63;;
64500;SDS011;50874;24.150;-110.320;2023-05-07T09:37:03;9.73;;;2.53;;
64500;SDS011;50874;24.150;-110.320;2023-05-07T09:39:44;13.07;;;3.25;;
64500;SDS011;50874;24.150;-110.320;2023-05-07T09:42:12;12.88;;;2.55;;
64500;SDS011;50874;24.150;-110.320;2023-05-07T09:44:40;14.75;;;2.97;;
64500;SDS011;50874;24.150;-110.320;2023-05-07T09:47:08;15.25;;;3.28;;
64500;SDS011;50874;24.150;-110.320;2023-05-07T09:49:37;9.10;;;2.70;;
64500;SDS011;50874;24.150;-110.320;2023-05-07T09:52:07;15.23;;;3.08;;
64500;SDS011;50874;24.150;-110.320;2023-05-07T09:54:35;28.60;;;4.05;;
64500;SDS011;50874;24.150;-110.320;2023-05-07T09:57:05;20.08;;;3.28;;
64500;SDS011;50874;24.150;-110.320;2023-05-07T09:59:33;16.10;;;4.47;;
64500;SDS011;50874;24.150;-110.320;2023-05-07T10:02:01;11.27;;;2.88;;
64500;SDS011;50874;24.150;-110.320;2023-05-07T10:04:30;18.08;;;3.08;;
64500;SDS011;50874;24.150;-110.320;2023-05-07T10:06:57;13.80;;;2.60;;
64500;SDS011;50874;24.150;-110.320;2023-05-07T10:09:25;11.35;;;2.25;;
64500;SDS011;50874;24.150;-110.320;2023-05-07T10:11:52;14.20;;;3.40;;
64500;SDS011;50874;24.150;-110.320;2023-05-07T10:14:19;15.60;;;3.17;;
64500;SDS011;50874;24.150;-110.320;2023-05-07T10:16:46;14.85;;;2.85;;
64500;SDS011;50874;24.150;-110.320;2023-05-07T10:19:14;9.77;;;2.90;;
64500;SDS011;50874;24.150;-110.320;2023-05-07T10:21:44;13.13;;;2.25;;
64500;SDS011;50874;24.150;-110.320;2023-05-07T10:24:20;15.45;;;2.60;;
64500;SDS011;50874;24.150;-110.320;2023-05-07T10:26:51;10.65;;;2.78;;
64500;SDS011;50874;24.150;-110.320;2023-05-07T10:32:47;17.25;;;3.15;;
64500;SDS011;50874;24.150;-110.320;2023-05-07T10:35:19;13.55;;;2.67;;
64500;SDS011;50874;24.150;-110.320;2023-05-07T10:37:48;11.35;;;2.78;;
64500;SDS011;50874;24.150;-110.320;2023-05-07T10:40:15;18.30;;;3.05;;
64500;SDS011;50874;24.150;-110.320;2023-05-07T10:42:55;26.75;;;4.18;;
64500;SDS011;50874;24.150;-110.320;2023-05-07T10:45:23;18.52;;;4.07;;
64500;SDS011;50874;24.150;-110.320;2023-05-07T10:50:35;16.17;;;3.80;;
64500;SDS011;50874;24.150;-110.320;2023-05-07T10:58:25;19.02;;;3.70;;
64500;SDS011;50874;24.150;-110.320;2023-05-07T11:00:56;20.95;;;3.75;;
64500;SDS011;50874;24.150;-110.320;2023-05-07T11:03:25;20.45;;;3.55;;
64500;SDS011;50874;24.150;-110.320;2023-05-07T11:08:52;12.80;;;2.97;;
64500;SDS011;50874;24.150;-110.320;2023-05-07T11:11:26;9.53;;;2.60;;
64500;SDS011;50874;24.150;-110.320;2023-05-07T11:14:40;11.15;;;2.28;;
64500;SDS011;50874;24.150;-110.320;2023-05-07T11:17:09;23.30;;;3.20;;
64500;SDS011;50874;24.150;-110.320;2023-05-07T11:19:50;20.05;;;3.45;;
64500;SDS011;50874;24.150;-110.320;2023-05-07T11:25:01;15.18;;;2.63;;
64500;SDS011;50874;24.150;-110.320;2023-05-07T11:27:29;13.73;;;3.05;;
64500;SDS011;50874;24.150;-110.320;2023-05-07T11:29:55;17.10;;;3.33;;
64500;SDS011;50874;24.150;-110.320;2023-05-07T11:32:22;13.60;;;2.20;;
64500;SDS011;50874;24.150;-110.320;2023-05-07T11:34:53;12.95;;;2.55;;
64500;SDS011;50874;24.150;-110.320;2023-05-07T11:37:20;15.30;;;3.05;;
64500;SDS011;50874;24.150;-110.320;2023-05-07T11:39:48;13.95;;;2.47;;
64500;SDS011;50874;24.150;-110.320;2023-05-07T11:42:27;25.58;;;3.22;;
64500;SDS011;50874;24.150;-110.320;2023-05-07T11:44:59;27.45;;;3.90;;
64500;SDS011;50874;24.150;-110.320;2023-05-07T11:47:26;19.08;;;5.35;;
64500;SDS011;50874;24.150;-110.320;2023-05-07T11:49:55;25.33;;;4.15;;
64500;SDS011;50874;24.150;-110.320;2023-05-07T11:52:22;16.80;;;3.40;;
64500;SDS011;50874;24.150;-110.320;2023-05-07T11:57:17;15.82;;;2.65;;
64500;SDS011;50874;24.150;-110.320;2023-05-07T11:59:43;13.10;;;3.13;;
64500;SDS011;50874;24.150;-110.320;2023-05-07T12:02:10;15.32;;;2.85;;
64500;SDS011;50874;24.150;-110.320;2023-05-07T12:04:38;18.23;;;2.97;;
64500;SDS011;50874;24.150;-110.320;2023-05-07T12:07:05;15.30;;;2.88;;
64500;SDS011;50874;24.150;-110.320;2023-05-07T12:09:36;9.68;;;2.55;;
64500;SDS011;50874;24.150;-110.320;2023-05-07T12:12:03;8.55;;;1.85;;
64500;SDS011;50874;24.150;-110.320;2023-05-07T12:14:31;14.57;;;3.22;;
64500;SDS011;50874;24.150;-110.320;2023-05-07T12:17:00;17.00;;;2.65;;
64500;SDS011;50874;24.150;-110.320;2023-05-07T12:19:31;13.70;;;3.05;;
64500;SDS011;50874;24.150;-110.320;2023-05-07T12:21:58;19.10;;;3.10;;
64500;SDS011;50874;24.150;-110.320;2023-05-07T12:24:25;15.68;;;3.42;;
64500;SDS011;50874;24.150;-110.320;2023-05-07T12:26:52;26.60;;;3.92;;
64500;SDS011;50874;24.150;-110.320;2023-05-07T12:29:22;21.92;;;3.55;;
64500;SDS011;50874;24.150;-110.320;2023-05-07T12:31:49;29.42;;;5.10;;
64500;SDS011;50874;24.150;-110.320;2023-05-07T12:34:16;26.25;;;3.60;;
64500;SDS011;50874;24.150;-110.320;2023-05-07T12:36:42;23.45;;;4.35;;
64500;SDS011;50874;24.150;-110.320;2023-05-07T12:39:09;33.28;;;4.50;;
64500;SDS011;50874;24.150;-110.320;2023-05-07T12:41:36;38.00;;;5.20;;
64500;SDS011;50874;24.150;-110.320;2023-05-07T12:44:18;22.20;;;4.15;;
64500;SDS011;50874;24.150;-110.320;2023-05-07T12:46:47;23.38;;;3.53;;
64500;SDS011;50874;24.150;-110.320;2023-05-07T12:49:13;13.82;;;3.25;;
64500;SDS011;50874;24.150;-110.320;2023-05-07T12:51:40;19.25;;;2.80;;
64500;SDS011;50874;24.150;-110.320;2023-05-07T12:54:06;20.77;;;2.78;;
64500;SDS011;50874;24.150;-110.320;2023-05-07T12:56:35;17.42;;;3.45;;
64500;SDS011;50874;24.150;-110.320;2023-05-07T12:59:02;10.80;;;3.17;;
64500;SDS011;50874;24.150;-110.320;2023-05-07T13:01:29;21.83;;;3.42;;
64500;SDS011;50874;24.150;-110.320;2023-05-07T13:04:00;17.80;;;2.88;;
64500;SDS011;50874;24.150;-110.320;2023-05-07T13:06:29;18.35;;;2.92;;
64500;SDS011;50874;24.150;-110.320;2023-05-07T13:08:56;17.63;;;2.85;;
64500;SDS011;50874;24.150;-110.320;2023-05-07T13:11:23;16.75;;;3.75;;
64500;SDS011;50874;24.150;-110.320;2023-05-07T13:13:50;18.08;;;2.70;;
64500;SDS011;50874;24.150;-110.320;2023-05-07T13:16:16;11.52;;;3.00;;
64500;SDS011;50874;24.150;-110.320;2023-05-07T13:18:43;17.55;;;2.92;;
64500;SDS011;50874;24.150;-110.320;2023-05-07T13:21:10;13.02;;;2.90;;
64500;SDS011;50874;24.150;-110.320;2023-05-07T13:23:38;13.48;;;3.00;;
64500;SDS011;50874;24.150;-110.320;2023-05-07T13:26:05;20.67;;;2.63;;
64500;SDS011;50874;24.150;-110.320;2023-05-07T13:28:32;12.13;;;2.38;;
64500;SDS011;50874;24.150;-110.320;2023-05-07T13:30:58;11.50;;;3.60;;
64500;SDS011;50874;24.150;-110.320;2023-05-07T13:33:25;14.82;;;2.75;;
64500;SDS011;50874;24.150;-110.320;2023-05-07T13:35:51;9.73;;;2.35;;
64500;SDS011;50874;24.150;-110.320;2023-05-07T13:38:18;17.65;;;2.88;;
64500;SDS011;50874;24.150;-110.320;2023-05-07T13:40:44;12.90;;;2.30;;
64500;SDS011;50874;24.150;-110.320;2023-05-07T13:43:11;12.18;;;2.85;;
64500;SDS011;50874;24.150;-110.320;2023-05-07T13:45:37;17.52;;;2.80;;
64500;SDS011;50874;24.150;-110.320;2023-05-07T13:48:03;18.00;;;2.67;;
64500;SDS011;50874;24.150;-110.320;2023-05-07T13:50:30;12.23;;;2.58;;
64500;SDS011;50874;24.150;-110.320;2023-05-07T13:52:56;15.15;;;2.65;;
64500;SDS011;50874;24.150;-110.320;2023-05-07T13:55:23;11.57;;;2.80;;
64500;SDS011;50874;24.150;-110.320;2023-05-07T13:57:57;14.77;;;2.90;;
64500;SDS011;50874;24.150;-110.320;2023-05-07T14:00:25;16.20;;;2.75;;
64500;SDS011;50874;24.150;-110.320;2023-05-07T14:02:52;16.73;;;2.90;;
64500;SDS011;50874;24.150;-110.320;2023-05-07T14:05:20;13.63;;;3.33;;
64500;SDS011;50874;24.150;-110.320;2023-05-07T14:07:48;14.10;;;3.13;;
64500;SDS011;50874;24.150;-110.320;2023-05-07T14:10:18;13.07;;;3.00;;
64500;SDS011;50874;24.150;-110.320;2023-05-07T14:12:45;16.77;;;3.33;;
64500;SDS011;50874;24.150;-110.320;2023-05-07T14:15:12;15.10;;;2.97;;
64500;SDS011;50874;24.150;-110.320;2023-05-07T14:17:39;15.50;;;3.30;;